createdAt,value
2019-05-12T00:02:11.060Z,8.03
2019-05-12T00:04:42.845Z,7.80
2019-05-12T00:07:14.643Z,8.57
2019-05-12T00:09:47.963Z,8.67
2019-05-12T00:12:19.884Z,9.40
2019-05-12T00:14:51.625Z,9.53
2019-05-12T00:17:23.818Z,10.37
2019-05-12T00:19:58.353Z,10.60
2019-05-12T00:22:34.459Z,10.70
2019-05-12T00:25:08.626Z,11.27
2019-05-12T00:27:39.793Z,11.97
2019-05-12T00:30:31.213Z,12.97
2019-05-12T00:33:03.193Z,13.73
2019-05-12T00:35:38.124Z,13.63
2019-05-12T00:38:10.162Z,14.13
2019-05-12T00:40:42.030Z,14.53
2019-05-12T00:43:13.981Z,15.43
2019-05-12T00:45:48.084Z,16.33
2019-05-12T00:48:19.112Z,16.03
2019-05-12T00:50:50.861Z,16.50
2019-05-12T00:53:36.107Z,17.37
2019-05-12T00:55:57.918Z,17.50
2019-05-12T00:58:29.728Z,17.43
2019-05-12T01:01:01.712Z,18.57
2019-05-12T01:03:33.617Z,17.90
2019-05-12T01:06:05.366Z,19.10
2019-05-12T01:08:38.266Z,19.67
2019-05-12T01:11:10.388Z,19.83
2019-05-12T01:13:42.215Z,19.37
2019-05-12T01:16:13.852Z,20.47
2019-05-12T01:18:47.935Z,20.70
2019-05-12T01:21:19.113Z,20.00
2019-05-12T01:23:57.039Z,19.37
2019-05-12T01:26:24.449Z,20.73
2019-05-12T01:28:58.073Z,21.23
2019-05-12T01:31:32.522Z,20.20
2019-05-12T01:34:04.530Z,21.93
2019-05-12T01:36:38.104Z,21.03
2019-05-12T01:39:10.447Z,22.10
2019-05-12T01:41:42.144Z,21.60
2019-05-12T01:44:13.733Z,21.73
2019-05-12T01:46:45.421Z,22.13
2019-05-12T01:49:18.717Z,21.90
2019-05-12T01:51:50.812Z,23.03
2019-05-12T01:54:22.588Z,23.50
2019-05-12T01:56:54.397Z,22.83
2019-05-12T01:59:26.116Z,23.50
2019-05-12T02:01:58.226Z,21.57
2019-05-12T02:04:32.260Z,22.77
2019-05-12T02:07:08.230Z,22.33
2019-05-12T02:09:38.951Z,23.43
2019-05-12T02:12:10.717Z,23.50
2019-05-12T02:14:42.367Z,22.90
2019-05-12T02:17:14.140Z,23.13
2019-05-12T02:19:47.961Z,23.27
2019-05-12T02:22:19.095Z,24.00
2019-05-12T02:24:50.696Z,24.90
2019-05-12T02:27:22.542Z,22.93
2019-05-12T02:29:54.312Z,22.47
2019-05-12T02:32:35.555Z,22.33
2019-05-12T02:34:59.676Z,24.47
2019-05-12T02:37:35.418Z,24.20
2019-05-12T02:40:06.193Z,25.07
2019-05-12T02:42:38.232Z,23.90
2019-05-12T02:45:10.512Z,23.37
2019-05-12T02:47:45.381Z,23.53
2019-05-12T02:50:18.498Z,24.27
2019-05-12T02:52:50.311Z,23.23
2019-05-12T02:55:25.390Z,24.93
2019-05-12T02:57:58.981Z,22.97
2019-05-12T03:00:35.120Z,23.27
2019-05-12T03:03:08.581Z,23.40
2019-05-12T03:05:44.198Z,22.30
2019-05-12T03:08:15.574Z,22.20
2019-05-12T03:10:48.727Z,22.00
2019-05-12T03:13:20.503Z,21.77
2019-05-12T03:15:54.869Z,23.03
2019-05-12T03:18:26.318Z,20.77
2019-05-12T03:20:58.062Z,22.20
2019-05-12T03:23:29.790Z,22.30
2019-05-12T03:26:04.934Z,20.20
2019-05-12T03:28:35.727Z,22.83
2019-05-12T03:31:08.641Z,20.97
2019-05-12T03:33:46.032Z,22.23
2019-05-12T03:36:18.034Z,21.47
2019-05-12T03:38:48.011Z,20.77
2019-05-12T03:41:19.714Z,23.93
2019-05-12T03:43:54.841Z,22.63
2019-05-12T03:46:25.136Z,22.47
2019-05-12T03:48:57.081Z,20.67
2019-05-12T03:51:28.854Z,22.47
2019-05-12T03:54:00.609Z,20.53
2019-05-12T03:56:34.458Z,21.57
2019-05-12T03:59:05.872Z,21.03
2019-05-12T04:01:45.526Z,22.07
2019-05-12T04:04:17.288Z,22.30
2019-05-12T04:06:48.820Z,20.33
2019-05-12T04:09:20.742Z,21.80
2019-05-12T04:11:54.726Z,22.37
2019-05-12T04:14:25.920Z,23.37
2019-05-12T04:16:57.743Z,23.23
2019-05-12T04:19:29.747Z,21.43
2019-05-12T04:22:05.320Z,21.30
2019-05-12T04:24:35.885Z,23.43
2019-05-12T04:27:07.887Z,24.63
2019-05-12T04:29:39.698Z,23.23
2019-05-12T04:32:14.202Z,24.40
2019-05-12T04:34:45.522Z,24.90
2019-05-12T04:37:17.120Z,24.00
2019-05-12T04:39:49.287Z,26.17
2019-05-12T04:42:20.821Z,22.57
2019-05-12T04:44:55.275Z,25.23
2019-05-12T04:47:26.264Z,23.93
2019-05-12T04:49:57.965Z,24.40
2019-05-12T04:52:29.775Z,23.10
2019-05-12T04:55:04.456Z,25.17
2019-05-12T04:57:34.858Z,23.27
2019-05-12T05:00:07.198Z,23.93
2019-05-12T05:02:39.044Z,22.40
2019-05-12T05:05:14.236Z,23.30
2019-05-12T05:07:44.908Z,22.37
2019-05-12T05:10:16.752Z,23.83
2019-05-12T05:12:48.325Z,22.47
2019-05-12T05:15:20.266Z,21.87
2019-05-12T05:17:54.556Z,21.17
2019-05-12T05:20:25.868Z,22.03
2019-05-12T05:22:57.736Z,20.53
2019-05-12T05:25:29.656Z,21.13
2019-05-12T05:28:03.726Z,20.80
2019-05-12T05:30:34.941Z,19.40
2019-05-12T05:33:06.918Z,19.87
2019-05-12T05:35:39.862Z,19.50
2019-05-12T05:38:19.182Z,20.83
2019-05-12T05:40:47.619Z,21.47
2019-05-12T05:43:20.688Z,19.93
2019-05-12T05:45:56.106Z,20.47
2019-05-12T05:48:26.051Z,19.90
2019-05-12T05:50:59.940Z,18.43
2019-05-12T05:53:33.575Z,19.57
2019-05-12T05:56:05.604Z,18.90
2019-05-12T05:58:40.141Z,18.13
2019-05-12T06:01:13.506Z,20.23
2019-05-12T06:03:44.551Z,20.10
2019-05-12T06:06:17.640Z,18.30
2019-05-12T06:09:01.067Z,17.23
2019-05-12T06:11:34.566Z,18.47
2019-05-12T06:14:14.063Z,16.13
2019-05-12T06:16:43.369Z,16.97
2019-05-12T06:19:15.623Z,17.33
2019-05-12T06:21:47.491Z,17.83
2019-05-12T06:24:20.189Z,16.57
2019-05-12T06:26:57.774Z,15.83
2019-05-12T06:29:26.003Z,16.37
2019-05-12T06:31:59.958Z,17.53
2019-05-12T06:34:31.552Z,16.27
2019-05-12T06:37:12.153Z,13.70
2019-05-12T06:39:37.308Z,16.47
2019-05-12T06:42:14.497Z,16.53
2019-05-12T06:44:43.750Z,15.47
2019-05-12T06:47:16.163Z,15.00
2019-05-12T06:49:48.881Z,16.43
2019-05-12T06:52:23.703Z,14.17
2019-05-12T06:54:56.801Z,15.20
2019-05-12T06:57:40.179Z,14.50
2019-05-12T07:00:10.428Z,14.67
2019-05-12T07:02:49.954Z,15.23
2019-05-12T07:05:16.208Z,14.50
2019-05-12T07:07:48.428Z,14.83
2019-05-12T07:10:36.676Z,14.53
2019-05-12T07:13:01.490Z,13.77
2019-05-12T07:15:29.350Z,14.63
2019-05-12T07:18:06.443Z,13.90
2019-05-12T07:20:39.149Z,13.47
2019-05-12T07:23:11.416Z,13.33
2019-05-12T07:25:50.947Z,11.83
2019-05-12T07:28:23.711Z,13.13
2019-05-12T07:30:56.428Z,13.23
2019-05-12T07:33:32.867Z,13.00
2019-05-12T07:36:06.323Z,12.70
2019-05-12T07:38:38.630Z,12.43
2019-05-12T07:41:11.035Z,11.30
2019-05-12T07:43:44.995Z,11.33
2019-05-12T07:46:18.872Z,10.90
2019-05-12T07:48:51.138Z,11.77
2019-05-12T07:51:24.207Z,11.93
2019-05-12T07:53:59.014Z,10.77
2019-05-12T07:56:32.767Z,11.43
2019-05-12T07:59:04.344Z,11.03
2019-05-12T08:01:45.260Z,10.97
2019-05-12T08:04:09.818Z,10.97
2019-05-12T08:06:49.231Z,10.63
2019-05-12T08:09:24.026Z,10.67
2019-05-12T08:11:54.778Z,11.00
2019-05-12T08:14:29.396Z,10.43
2019-05-12T08:17:01.924Z,9.77
2019-05-12T08:19:33.871Z,10.13
2019-05-12T08:22:06.095Z,10.10
2019-05-12T08:24:43.620Z,8.17
2019-05-12T08:27:14.315Z,8.10
2019-05-12T08:29:45.248Z,7.43
2019-05-12T08:32:20.095Z,7.70
2019-05-12T08:34:50.967Z,7.83
2019-05-12T08:37:24.360Z,7.60
2019-05-12T08:40:03.390Z,7.37
2019-05-12T08:42:30.129Z,7.77
2019-05-12T08:45:04.090Z,7.13
2019-05-12T08:47:38.818Z,6.73
2019-05-12T08:50:09.298Z,7.80
2019-05-12T08:52:41.971Z,6.73
2019-05-12T08:55:16.830Z,6.73
2019-05-12T08:57:49.659Z,6.70
2019-05-12T09:00:39.646Z,6.07
2019-05-12T09:03:08.606Z,5.13
2019-05-12T09:05:40.877Z,6.20
2019-05-12T09:08:13.817Z,5.60
2019-05-12T09:10:45.986Z,6.57
2019-05-12T09:13:17.916Z,5.37
2019-05-12T09:15:50.016Z,5.97
2019-05-12T09:18:23.714Z,6.20
2019-05-12T09:20:55.933Z,6.00
2019-05-12T09:23:32.824Z,6.10
2019-05-12T09:26:03.728Z,5.67
2019-05-12T09:28:46.353Z,4.97
2019-05-12T09:31:09.238Z,5.77
2019-05-12T09:33:40.959Z,5.70
2019-05-12T09:36:16.676Z,7.50
2019-05-12T09:38:45.103Z,5.40
2019-05-12T09:41:17.024Z,7.03
2019-05-12T09:43:50.536Z,4.80
2019-05-12T09:46:23.319Z,4.90
2019-05-12T09:48:55.655Z,6.23
2019-05-12T09:51:32.860Z,5.33
2019-05-12T09:54:02.041Z,5.10
2019-05-12T09:56:34.357Z,8.07
2019-05-12T09:59:17.466Z,4.23
2019-05-12T10:01:42.939Z,5.10
2019-05-12T10:04:16.363Z,4.30
2019-05-12T10:06:47.078Z,7.97
2019-05-12T10:09:19.968Z,4.40
2019-05-12T10:12:00.252Z,4.33
2019-05-12T10:14:25.598Z,4.67
2019-05-12T10:16:57.489Z,3.77
2019-05-12T10:19:29.809Z,3.83
2019-05-12T10:22:01.805Z,4.00
2019-05-12T10:24:41.661Z,3.43
2019-05-12T10:27:07.621Z,4.90
2019-05-12T10:29:39.430Z,3.40
2019-05-12T10:32:13.213Z,4.37
2019-05-12T10:34:44.895Z,3.60
2019-05-12T10:37:19.208Z,4.10
2019-05-12T10:39:50.535Z,4.50
2019-05-12T10:42:24.327Z,4.00
2019-05-12T10:44:56.776Z,3.60
2019-05-12T10:47:28.701Z,3.97
2019-05-12T10:50:00.488Z,3.40
2019-05-12T10:52:35.055Z,3.63
2019-05-12T10:55:06.524Z,3.80
2019-05-12T10:57:38.448Z,3.20
2019-05-12T11:00:14.318Z,3.10
2019-05-12T11:02:46.177Z,3.13
2019-05-12T11:05:25.837Z,3.17
2019-05-12T11:07:53.968Z,3.63
2019-05-12T11:10:26.863Z,3.70
2019-05-12T11:12:59.094Z,3.23
2019-05-12T11:15:34.312Z,3.37
2019-05-12T11:18:20.654Z,3.20
2019-05-12T11:20:51.389Z,3.23
2019-05-12T11:23:24.433Z,3.83
2019-05-12T11:25:56.882Z,3.10
2019-05-12T11:28:28.796Z,3.10
2019-05-12T11:31:00.907Z,3.60
2019-05-12T11:33:34.169Z,3.23
2019-05-12T11:36:06.241Z,3.63
2019-05-12T11:38:38.214Z,3.63
2019-05-12T11:41:16.255Z,3.07
2019-05-12T11:43:44.096Z,3.57
2019-05-12T11:46:15.863Z,3.03
2019-05-12T11:48:50.249Z,3.37
2019-05-12T11:51:26.975Z,3.37
2019-05-12T11:53:55.073Z,4.03
2019-05-12T11:56:26.963Z,3.60
2019-05-12T11:58:58.811Z,3.10
2019-05-12T12:01:31.117Z,2.87
2019-05-12T12:04:10.755Z,3.33
2019-05-12T12:06:43.857Z,3.73
2019-05-12T12:09:18.876Z,3.47
2019-05-12T12:11:56.727Z,3.43
2019-05-12T12:14:23.852Z,4.77
2019-05-12T12:16:55.834Z,3.53
2019-05-12T12:19:34.927Z,3.73
2019-05-12T12:22:01.330Z,3.37
2019-05-12T12:24:33.687Z,3.03
2019-05-12T12:27:05.594Z,3.30
2019-05-12T12:29:38.019Z,3.40
2019-05-12T12:32:15.238Z,3.73
2019-05-12T12:34:44.043Z,3.27
2019-05-12T12:37:19.025Z,3.13
2019-05-12T12:39:49.832Z,3.50
2019-05-12T12:42:24.054Z,3.40
2019-05-12T12:44:58.671Z,3.53
2019-05-12T12:47:29.302Z,3.93
2019-05-12T12:50:01.449Z,3.40
2019-05-12T12:52:33.631Z,3.40
2019-05-12T12:55:08.464Z,3.40
2019-05-12T12:57:40.277Z,3.03
2019-05-12T13:00:17.787Z,3.50
2019-05-12T13:02:49.235Z,3.30
2019-05-12T13:05:20.785Z,3.13
2019-05-12T13:07:53.503Z,3.50
2019-05-12T13:10:25.505Z,3.37
2019-05-12T13:13:00.998Z,4.23
2019-05-12T13:15:31.317Z,3.10
2019-05-12T13:18:03.439Z,3.10
2019-05-12T13:20:35.428Z,3.20
2019-05-12T13:23:07.586Z,4.37
2019-05-12T13:25:47.628Z,3.30
2019-05-12T13:28:18.821Z,3.37
2019-05-12T13:30:49.608Z,3.63
2019-05-12T13:33:20.044Z,2.90
2019-05-12T13:35:55.633Z,2.97
2019-05-12T13:38:25.318Z,2.90
2019-05-12T13:40:57.594Z,3.17
2019-05-12T13:43:29.625Z,4.00
2019-05-12T13:46:01.602Z,3.07
2019-05-12T13:48:33.569Z,3.60
2019-05-12T13:51:11.584Z,4.43
2019-05-12T13:53:40.483Z,5.80
2019-05-12T13:56:13.686Z,3.30
2019-05-12T13:58:45.974Z,4.50
2019-05-12T14:01:20.562Z,3.60
2019-05-12T14:03:53.573Z,2.80
2019-05-12T14:06:32.002Z,3.40
2019-05-12T14:08:58.946Z,2.80
2019-05-12T14:11:31.167Z,2.63
2019-05-12T14:14:11.517Z,3.57
2019-05-12T14:16:36.967Z,3.33
2019-05-12T14:19:08.921Z,3.80
2019-05-12T14:21:48.151Z,3.00
2019-05-12T14:24:20.023Z,4.50
2019-05-12T14:26:53.382Z,2.93
2019-05-12T14:29:26.720Z,2.97
2019-05-12T14:32:02.396Z,3.10
2019-05-12T14:34:33.995Z,3.10
2019-05-12T14:37:10.243Z,4.13
2019-05-12T14:39:40.232Z,3.07
2019-05-12T14:42:13.643Z,2.90
2019-05-12T14:44:49.606Z,3.23
2019-05-12T14:47:30.143Z,3.13
2019-05-12T14:50:00.238Z,4.30
2019-05-12T14:52:33.318Z,4.87
2019-05-12T14:55:05.519Z,5.70
2019-05-12T14:57:39.355Z,4.77
2019-05-12T15:00:17.349Z,4.20
2019-05-12T15:02:45.499Z,5.00
2019-05-12T15:05:17.488Z,6.10
2019-05-12T15:07:53.487Z,5.10
2019-05-12T15:10:23.495Z,6.03
2019-05-12T15:12:55.637Z,6.87
2019-05-12T15:15:27.560Z,7.57
2019-05-12T15:18:03.669Z,7.67
2019-05-12T15:20:33.305Z,9.03
2019-05-12T15:23:05.221Z,10.33
2019-05-12T15:25:37.390Z,11.30
2019-05-12T15:28:09.579Z,11.13
2019-05-12T15:30:43.468Z,9.80
2019-05-12T15:33:15.337Z,12.33
2019-05-12T15:35:47.845Z,10.47
2019-05-12T15:38:19.881Z,10.60
2019-05-12T15:40:53.760Z,8.87
2019-05-12T15:43:26.071Z,8.40
2019-05-12T15:45:59.586Z,9.50
2019-05-12T15:48:34.027Z,7.40
2019-05-12T15:51:08.464Z,8.27
2019-05-12T15:53:38.998Z,7.90
2019-05-12T15:56:17.595Z,7.63
2019-05-12T15:58:44.727Z,8.87
2019-05-12T16:01:17.000Z,7.60
2019-05-12T16:03:49.699Z,7.33
2019-05-12T16:06:21.859Z,6.10
2019-05-12T16:08:53.706Z,7.17
2019-05-12T16:11:26.561Z,7.30
2019-05-12T16:13:59.620Z,8.67
2019-05-12T16:16:34.013Z,8.23
2019-05-12T16:19:05.184Z,9.70
2019-05-12T16:21:37.124Z,9.70
2019-05-12T16:24:11.335Z,8.90
2019-05-12T16:26:51.729Z,9.67
2019-05-12T16:29:16.821Z,11.07
2019-05-12T16:31:49.969Z,10.63
2019-05-12T16:34:22.102Z,9.00
2019-05-12T16:36:54.771Z,9.17
2019-05-12T16:39:30.279Z,11.03
2019-05-12T16:42:08.219Z,8.50
2019-05-12T16:44:34.843Z,8.80
2019-05-12T16:47:07.060Z,9.13
2019-05-12T16:49:39.030Z,9.20
2019-05-12T16:52:11.045Z,10.07
2019-05-12T16:54:43.998Z,10.33
2019-05-12T16:57:18.245Z,11.07
2019-05-12T16:59:53.409Z,9.53
2019-05-12T17:02:23.535Z,9.33
2019-05-12T17:04:56.724Z,8.50
2019-05-12T17:07:28.938Z,9.37
2019-05-12T17:10:02.988Z,10.90
2019-05-12T17:12:37.020Z,9.27
2019-05-12T17:15:08.259Z,9.70
2019-05-12T17:17:40.215Z,9.63
2019-05-12T17:20:13.827Z,9.70
2019-05-12T17:22:54.342Z,10.00
2019-05-12T17:25:20.039Z,10.90
2019-05-12T17:27:52.202Z,10.23
2019-05-12T17:30:24.355Z,9.97
2019-05-12T17:33:00.889Z,9.73
2019-05-12T17:35:31.942Z,10.20
2019-05-12T17:38:19.167Z,8.77
2019-05-12T17:40:44.521Z,11.00
2019-05-12T17:43:16.564Z,13.20
2019-05-12T17:45:50.473Z,12.60
2019-05-12T17:48:23.417Z,10.77
2019-05-12T17:50:56.147Z,11.13
2019-05-12T17:53:30.525Z,8.53
2019-05-12T17:56:04.611Z,10.27
2019-05-12T17:58:43.918Z,11.90
2019-05-12T18:01:09.107Z,10.70
2019-05-12T18:03:48.795Z,11.07
2019-05-12T18:06:14.896Z,9.37
2019-05-12T18:08:47.867Z,6.37
2019-05-12T18:11:19.922Z,9.40
2019-05-12T18:14:01.700Z,8.80
2019-05-12T18:16:25.133Z,9.80
2019-05-12T18:18:57.055Z,9.77
2019-05-12T18:21:31.213Z,11.47
2019-05-12T18:24:08.764Z,10.13
2019-05-12T18:26:35.718Z,10.37
2019-05-12T18:29:07.648Z,10.77
2019-05-12T18:31:39.497Z,11.30
2019-05-12T18:34:13.699Z,9.73
2019-05-12T18:36:49.085Z,10.70
2019-05-12T18:39:18.567Z,10.63
2019-05-12T18:41:50.559Z,10.50
2019-05-12T18:44:28.978Z,10.37
2019-05-12T18:46:56.354Z,10.20
2019-05-12T18:49:28.268Z,9.63
2019-05-12T18:52:00.483Z,11.23
2019-05-12T18:54:34.432Z,9.73
2019-05-12T18:57:07.394Z,10.00
2019-05-12T18:59:39.477Z,11.20
2019-05-12T19:02:14.632Z,9.43
2019-05-12T19:04:45.412Z,9.03
2019-05-12T19:07:17.312Z,8.77
2019-05-12T19:09:49.297Z,7.20
2019-05-12T19:12:31.762Z,8.53
2019-05-12T19:14:55.927Z,8.77
2019-05-12T19:17:28.199Z,7.73
2019-05-12T19:20:01.579Z,7.17
2019-05-12T19:22:33.966Z,6.90
2019-05-12T19:25:19.206Z,7.10
2019-05-12T19:28:05.699Z,6.33
2019-05-12T19:30:34.491Z,5.30
2019-05-12T19:33:10.664Z,6.40
2019-05-12T19:35:40.213Z,6.20
2019-05-12T19:38:15.057Z,5.00
2019-05-12T19:40:54.678Z,5.43
2019-05-12T19:43:19.883Z,5.60
2019-05-12T19:45:53.551Z,5.23
2019-05-12T19:48:35.189Z,4.97
2019-05-12T19:51:20.717Z,5.47
2019-05-12T19:53:40.909Z,5.40
2019-05-12T19:56:20.471Z,5.07
2019-05-12T19:58:53.812Z,5.93
2019-05-12T20:01:32.702Z,4.57
2019-05-12T20:04:00.415Z,4.50
2019-05-12T20:06:34.082Z,5.03
2019-05-12T20:09:10.845Z,4.97
2019-05-12T20:11:40.916Z,3.87
2019-05-12T20:14:19.008Z,4.47
2019-05-12T20:16:46.829Z,3.80
2019-05-12T20:19:19.856Z,4.10
2019-05-12T20:21:54.155Z,5.30
2019-05-12T20:24:25.765Z,5.13
2019-05-12T20:26:57.999Z,4.10
2019-05-12T20:29:33.188Z,4.87
2019-05-12T20:32:04.754Z,3.63
2019-05-12T20:34:48.524Z,4.37
2019-05-12T20:37:14.175Z,3.67
2019-05-12T20:39:44.688Z,4.63
2019-05-12T20:42:16.626Z,3.70
2019-05-12T20:44:51.243Z,3.83
2019-05-12T20:47:23.449Z,4.40
2019-05-12T20:49:55.806Z,3.30
2019-05-12T20:52:28.206Z,3.47
2019-05-12T20:55:00.070Z,3.80
2019-05-12T20:57:34.363Z,3.83
2019-05-12T21:00:08.127Z,3.47
2019-05-12T21:02:40.135Z,3.77
2019-05-12T21:05:16.439Z,3.73
2019-05-12T21:07:45.701Z,4.07
2019-05-12T21:10:19.831Z,4.13
2019-05-12T21:12:51.372Z,3.53
2019-05-12T21:15:29.354Z,3.00
2019-05-12T21:18:02.865Z,3.90
2019-05-12T21:20:30.613Z,3.30
2019-05-12T21:23:02.594Z,2.73
2019-05-12T21:25:34.612Z,3.53
2019-05-12T21:28:07.911Z,3.73
2019-05-12T21:30:42.328Z,3.20
2019-05-12T21:33:14.683Z,2.90
2019-05-12T21:35:47.054Z,3.17
2019-05-12T21:38:24.309Z,2.80
2019-05-12T21:40:52.640Z,2.87
2019-05-12T21:43:24.738Z,3.20
2019-05-12T21:46:01.035Z,2.77
2019-05-12T21:48:30.266Z,2.70
2019-05-12T21:51:04.224Z,2.90
2019-05-12T21:53:35.927Z,3.10
2019-05-12T21:56:07.984Z,3.10
2019-05-12T21:58:45.415Z,3.07
2019-05-12T22:01:14.208Z,2.70
2019-05-12T22:03:58.052Z,2.40
2019-05-12T22:06:24.642Z,2.63
2019-05-12T22:09:01.417Z,2.70
2019-05-12T22:11:34.606Z,4.10
2019-05-12T22:14:07.021Z,3.03
2019-05-12T22:16:45.372Z,2.57
2019-05-12T22:19:13.867Z,2.40
2019-05-12T22:21:49.339Z,2.53
2019-05-12T22:24:24.590Z,2.93
2019-05-12T22:26:54.380Z,2.43
2019-05-12T22:29:30.233Z,3.07
2019-05-12T22:32:00.193Z,2.70
2019-05-12T22:34:37.239Z,3.20
2019-05-12T22:37:05.401Z,2.53
2019-05-12T22:39:37.165Z,2.70
2019-05-12T22:42:11.713Z,2.97
2019-05-12T22:44:43.806Z,2.77
2019-05-12T22:47:17.541Z,3.40
2019-05-12T22:49:52.058Z,2.60
2019-05-12T22:52:23.941Z,2.77
2019-05-12T22:54:55.898Z,2.60
2019-05-12T22:57:29.201Z,2.33
2019-05-12T23:00:03.802Z,2.60
2019-05-12T23:02:44.512Z,3.13
2019-05-12T23:05:20.397Z,3.10
2019-05-12T23:07:49.557Z,3.07
2019-05-12T23:10:21.593Z,2.47
2019-05-12T23:12:59.597Z,2.70
2019-05-12T23:15:27.029Z,2.70
2019-05-12T23:17:58.901Z,2.30
2019-05-12T23:20:31.250Z,2.27
2019-05-12T23:23:09.106Z,2.50
2019-05-12T23:25:37.956Z,2.53
2019-05-12T23:28:10.653Z,2.40
2019-05-12T23:30:48.311Z,2.90
2019-05-12T23:33:16.189Z,3.00
2019-05-12T23:35:48.300Z,2.40
2019-05-12T23:38:21.101Z,2.43
2019-05-12T23:40:53.789Z,2.90
2019-05-12T23:43:23.991Z,1.97
2019-05-12T23:45:55.863Z,2.53
2019-05-12T23:48:27.568Z,2.37
2019-05-12T23:50:59.159Z,2.20
2019-05-12T23:53:33.664Z,1.77
2019-05-12T23:56:04.507Z,2.20
2019-05-12T23:58:36.026Z,2.20
